createdAt,value
2023-04-29T00:00:49.313Z,37.38
2023-04-29T00:01:49.404Z,37.38
2023-04-29T00:02:49.560Z,37.30
2023-04-29T00:03:49.507Z,37.36
2023-04-29T00:04:49.570Z,37.30
2023-04-29T00:05:49.868Z,37.35
2023-04-29T00:06:49.525Z,37.35
2023-04-29T00:07:49.521Z,37.33
2023-04-29T00:08:49.559Z,37.30
2023-04-29T00:09:49.691Z,37.27
2023-04-29T00:10:49.744Z,37.30
2023-04-29T00:11:49.647Z,37.32
2023-04-29T00:12:49.697Z,37.29
2023-04-29T00:13:49.717Z,37.28
2023-04-29T00:14:49.778Z,37.25
2023-04-29T00:15:49.833Z,37.28
2023-04-29T00:16:49.896Z,37.23
2023-04-29T00:17:49.883Z,37.20
2023-04-29T00:18:49.899Z,37.26
2023-04-29T00:19:50.059Z,37.21
2023-04-29T00:20:50.234Z,37.20
2023-04-29T00:21:50.022Z,37.21
2023-04-29T00:22:50.046Z,37.20
2023-04-29T00:23:50.059Z,37.20
2023-04-29T00:24:50.214Z,37.22
2023-04-29T00:25:50.159Z,37.19
2023-04-29T00:26:50.212Z,37.20
2023-04-29T00:27:50.207Z,37.16
2023-04-29T00:28:50.238Z,37.19
2023-04-29T00:29:50.456Z,37.24
2023-04-29T00:30:50.362Z,37.20
2023-04-29T00:31:50.368Z,37.20
2023-04-29T00:32:50.414Z,37.20
2023-04-29T00:33:50.415Z,37.17
2023-04-29T00:34:50.482Z,37.16
2023-04-29T00:35:51.243Z,37.17
2023-04-29T00:36:50.577Z,37.13
2023-04-29T00:37:50.583Z,37.12
2023-04-29T00:38:50.627Z,37.12
2023-04-29T00:39:50.855Z,37.11
2023-04-29T00:40:50.713Z,37.11
2023-04-29T00:41:51.259Z,37.11
2023-04-29T00:42:50.792Z,37.17
2023-04-29T00:43:50.847Z,37.09
2023-04-29T00:44:50.953Z,37.11
2023-04-29T00:45:50.995Z,37.15
2023-04-29T00:46:51.246Z,37.08
2023-04-29T00:47:51.049Z,37.10
2023-04-29T00:48:51.036Z,37.10
2023-04-29T00:49:51.291Z,37.08
2023-04-29T00:50:51.194Z,37.07
2023-04-29T00:51:51.207Z,37.07
2023-04-29T00:52:51.231Z,37.08
2023-04-29T00:53:51.277Z,37.09
2023-04-29T00:54:51.356Z,37.03
2023-04-29T00:55:51.339Z,37.07
2023-04-29T00:56:51.499Z,37.02
2023-04-29T00:57:51.403Z,36.99
2023-04-29T00:58:51.425Z,37.03
2023-04-29T00:59:51.577Z,37.01
2023-04-29T01:00:51.471Z,37.01
2023-04-29T01:01:51.554Z,36.94
2023-04-29T01:02:51.609Z,37.01
2023-04-29T01:03:51.693Z,36.98
2023-04-29T01:04:51.694Z,36.99
2023-04-29T01:05:51.675Z,36.99
2023-04-29T01:06:51.726Z,36.99
2023-04-29T01:07:51.783Z,37.01
2023-04-29T01:08:51.794Z,36.98
2023-04-29T01:09:51.962Z,36.96
2023-04-29T01:10:51.880Z,36.96
2023-04-29T01:11:51.912Z,36.94
2023-04-29T01:12:51.943Z,36.96
2023-04-29T01:13:51.976Z,36.92
2023-04-29T01:14:52.048Z,36.91
2023-04-29T01:15:52.196Z,36.95
2023-04-29T01:16:52.154Z,36.90
2023-04-29T01:17:52.141Z,36.91
2023-04-29T01:18:52.203Z,36.92
2023-04-29T01:19:52.534Z,36.92
2023-04-29T01:20:52.259Z,36.89
2023-04-29T01:21:52.304Z,36.88
2023-04-29T01:22:52.328Z,36.91
2023-04-29T01:23:52.358Z,36.90
2023-04-29T01:24:52.455Z,36.89
2023-04-29T01:25:52.451Z,36.91
2023-04-29T01:26:52.494Z,36.90
2023-04-29T01:27:52.562Z,36.90
2023-04-29T01:28:52.591Z,36.92
2023-04-29T01:29:52.972Z,36.88
2023-04-29T01:30:52.662Z,36.88
2023-04-29T01:32:52.812Z,36.90
2023-04-29T01:33:52.820Z,36.84
2023-04-29T01:34:52.827Z,36.86
2023-04-29T01:35:52.917Z,36.83
2023-04-29T01:36:52.931Z,36.80
2023-04-29T01:37:53.003Z,36.84
2023-04-29T01:38:53.736Z,36.81
2023-04-29T01:39:53.330Z,36.84
2023-04-29T01:40:53.151Z,36.81
2023-04-29T01:41:53.166Z,36.81
2023-04-29T01:42:53.210Z,36.83
2023-04-29T01:43:53.270Z,36.80
2023-04-29T01:44:53.326Z,36.79
2023-04-29T01:45:53.395Z,36.84
2023-04-29T01:46:53.404Z,36.78
2023-04-29T01:47:53.442Z,36.80
2023-04-29T01:48:53.440Z,36.79
2023-04-29T01:49:53.757Z,36.79
2023-04-29T01:50:53.554Z,36.76
2023-04-29T01:51:53.572Z,36.78
2023-04-29T01:52:53.606Z,36.78
2023-04-29T01:53:53.674Z,36.75
2023-04-29T01:54:53.698Z,36.80
2023-04-29T01:55:53.781Z,36.75
2023-04-29T01:56:53.812Z,36.76
2023-04-29T01:57:53.846Z,36.76
2023-04-29T01:58:53.891Z,36.74
2023-04-29T01:59:54.041Z,36.76
2023-04-29T02:00:54.003Z,36.76
2023-04-29T02:01:54.008Z,36.75
2023-04-29T02:02:54.131Z,36.71
2023-04-29T02:03:54.243Z,36.75
2023-04-29T02:04:54.321Z,36.71
2023-04-29T02:05:54.194Z,36.65
2023-04-29T02:06:54.216Z,36.66
2023-04-29T02:07:54.273Z,36.69
2023-04-29T02:08:54.307Z,36.74
2023-04-29T02:09:54.513Z,36.67
2023-04-29T02:10:54.389Z,36.69
2023-04-29T02:11:54.447Z,36.71
2023-04-29T02:12:54.463Z,36.69
2023-04-29T02:13:54.509Z,36.69
2023-04-29T02:14:54.542Z,36.66
2023-04-29T02:15:54.646Z,36.70
2023-04-29T02:16:54.626Z,36.67
2023-04-29T02:17:54.686Z,36.66
2023-04-29T02:18:54.754Z,36.64
2023-04-29T02:19:54.814Z,36.66
2023-04-29T02:20:54.814Z,36.58
2023-04-29T02:21:54.834Z,36.62
2023-04-29T02:22:54.886Z,36.61
2023-04-29T02:23:54.908Z,36.58
2023-04-29T02:24:54.991Z,36.64
2023-04-29T02:25:55.036Z,36.66
2023-04-29T02:26:55.114Z,36.65
2023-04-29T02:27:55.125Z,36.63
2023-04-29T02:28:55.163Z,36.64
2023-04-29T02:29:55.191Z,36.63
2023-04-29T02:30:55.205Z,36.59
2023-04-29T02:31:55.338Z,36.59
2023-04-29T02:32:55.350Z,36.58
2023-04-29T02:33:55.359Z,36.57
2023-04-29T02:34:55.428Z,36.58
2023-04-29T02:35:55.490Z,36.61
2023-04-29T02:36:55.512Z,36.59
2023-04-29T02:37:55.572Z,36.59
2023-04-29T02:38:55.608Z,36.57
2023-04-29T02:39:55.771Z,36.58
2023-04-29T02:40:55.698Z,36.56
2023-04-29T02:41:55.729Z,36.50
2023-04-29T02:42:55.787Z,36.55
2023-04-29T02:43:55.850Z,36.55
2023-04-29T02:44:55.856Z,36.55
2023-04-29T02:45:56.007Z,36.58
2023-04-29T02:46:55.982Z,36.50
2023-04-29T02:47:56.090Z,36.52
2023-04-29T02:48:56.054Z,36.52
2023-04-29T02:49:56.118Z,36.53
2023-04-29T02:50:56.169Z,36.53
2023-04-29T02:51:56.204Z,36.50
2023-04-29T02:52:56.320Z,36.50
2023-04-29T02:53:56.340Z,36.47
2023-04-29T02:54:56.379Z,36.52
2023-04-29T02:55:56.421Z,36.51
2023-04-29T02:56:56.445Z,36.50
2023-04-29T02:57:56.502Z,36.54
2023-04-29T02:58:56.566Z,36.52
2023-04-29T02:59:56.633Z,36.49
2023-04-29T03:00:56.720Z,36.58
2023-04-29T03:01:56.791Z,36.56
2023-04-29T03:02:56.868Z,36.52
2023-04-29T03:03:57.083Z,36.49
2023-04-29T03:04:56.888Z,36.55
2023-04-29T03:05:56.949Z,36.52
2023-04-29T03:06:56.994Z,36.50
2023-04-29T03:07:57.008Z,36.50
2023-04-29T03:08:57.108Z,36.49
2023-04-29T03:09:57.104Z,36.46
2023-04-29T03:10:57.180Z,36.47
2023-04-29T03:11:57.306Z,36.42
2023-04-29T03:12:57.261Z,36.45
2023-04-29T03:13:57.287Z,36.46
2023-04-29T03:14:57.352Z,36.46
2023-04-29T03:15:57.402Z,36.49
2023-04-29T03:16:57.917Z,36.44
2023-04-29T03:17:57.515Z,36.45
2023-04-29T03:18:57.520Z,36.41
2023-04-29T03:19:57.582Z,36.46
2023-04-29T03:20:57.641Z,36.43
2023-04-29T03:21:57.818Z,36.38
2023-04-29T03:22:57.722Z,36.42
2023-04-29T03:23:57.781Z,36.48
2023-04-29T03:24:57.818Z,36.44
2023-04-29T03:25:57.910Z,36.46
2023-04-29T03:26:57.917Z,36.44
2023-04-29T03:27:58.002Z,36.46
2023-04-29T03:28:58.034Z,36.46
2023-04-29T03:29:58.078Z,36.42
2023-04-29T03:30:58.218Z,36.45
2023-04-29T03:31:58.180Z,36.40
2023-04-29T03:32:58.259Z,36.40
2023-04-29T03:33:58.269Z,36.41
2023-04-29T03:34:58.329Z,36.43
2023-04-29T03:35:58.365Z,36.40
2023-04-29T03:36:58.414Z,36.38
2023-04-29T03:37:58.483Z,36.37
2023-04-29T03:38:58.479Z,36.40
2023-04-29T03:39:58.536Z,36.42
2023-04-29T03:40:58.601Z,36.42
2023-04-29T03:41:58.599Z,36.41
2023-04-29T03:42:58.681Z,36.39
2023-04-29T03:43:58.723Z,36.41
2023-04-29T03:44:58.763Z,36.39
2023-04-29T03:45:58.997Z,36.41
2023-04-29T03:46:59.326Z,36.41
2023-04-29T03:47:58.987Z,36.39
2023-04-29T03:48:58.973Z,36.38
2023-04-29T03:49:59.023Z,36.41
2023-04-29T03:50:59.119Z,36.39
2023-04-29T03:51:59.104Z,36.38
2023-04-29T03:52:59.189Z,36.39
2023-04-29T03:53:59.240Z,36.35
2023-04-29T03:54:59.270Z,36.35
2023-04-29T03:55:59.318Z,36.38
2023-04-29T03:56:59.377Z,36.34
2023-04-29T03:57:59.473Z,36.34
2023-04-29T03:58:59.475Z,36.37
2023-04-29T03:59:59.550Z,36.35
2023-04-29T04:00:59.653Z,36.30
2023-04-29T04:01:59.674Z,36.34
2023-04-29T04:03:00.369Z,36.38
2023-04-29T04:03:59.890Z,36.33
2023-04-29T04:04:59.886Z,36.33
2023-04-29T04:05:59.859Z,36.31
2023-04-29T04:06:59.905Z,36.33
2023-04-29T04:07:59.940Z,36.31
2023-04-29T04:08:59.961Z,36.29
2023-04-29T04:10:00.041Z,36.36
2023-04-29T04:11:00.052Z,36.30
2023-04-29T04:12:00.136Z,36.30
2023-04-29T04:13:00.204Z,36.34
2023-04-29T04:14:00.255Z,36.29
2023-04-29T04:15:00.297Z,36.30
2023-04-29T04:16:00.425Z,36.35
2023-04-29T04:17:00.420Z,36.34
2023-04-29T04:18:00.516Z,36.32
2023-04-29T04:19:00.576Z,36.32
2023-04-29T04:20:00.586Z,36.26
2023-04-29T04:21:00.639Z,36.29
2023-04-29T04:22:00.717Z,36.29
2023-04-29T04:23:00.758Z,36.23
2023-04-29T04:24:00.801Z,36.25
2023-04-29T04:25:00.892Z,36.25
2023-04-29T04:26:00.970Z,36.26
2023-04-29T04:27:00.985Z,36.22
2023-04-29T04:28:01.043Z,36.27
2023-04-29T04:29:01.101Z,36.30
2023-04-29T04:30:01.165Z,36.27
2023-04-29T04:31:01.214Z,36.21
2023-04-29T04:32:01.262Z,36.29
2023-04-29T04:33:01.365Z,36.24
2023-04-29T04:34:01.384Z,36.26
2023-04-29T04:35:01.430Z,36.23
2023-04-29T04:36:01.485Z,36.29
2023-04-29T04:37:01.562Z,36.26
2023-04-29T04:38:01.626Z,36.30
2023-04-29T04:39:01.712Z,36.27
2023-04-29T04:40:01.768Z,36.26
2023-04-29T04:41:01.825Z,36.26
2023-04-29T04:42:01.894Z,36.26
2023-04-29T04:43:01.956Z,36.28
2023-04-29T04:44:01.996Z,36.28
2023-04-29T04:45:02.050Z,36.24
2023-04-29T04:46:02.204Z,36.24
2023-04-29T04:47:02.289Z,36.25
2023-04-29T04:48:02.266Z,36.28
2023-04-29T04:49:02.330Z,36.26
2023-04-29T04:50:02.396Z,36.30
2023-04-29T04:51:02.436Z,36.30
2023-04-29T04:52:02.503Z,36.26
2023-04-29T04:53:02.548Z,36.29
2023-04-29T04:54:02.620Z,36.22
2023-04-29T04:55:02.686Z,36.26
2023-04-29T04:56:02.757Z,36.23
2023-04-29T04:57:02.835Z,36.21
2023-04-29T04:58:02.900Z,36.22
2023-04-29T04:59:02.934Z,36.22
2023-04-29T05:00:02.999Z,36.18
2023-04-29T05:01:03.067Z,36.22
2023-04-29T05:02:03.370Z,36.22
2023-04-29T05:03:03.257Z,36.17
2023-04-29T05:04:03.397Z,36.17
2023-04-29T05:05:03.313Z,36.21
2023-04-29T05:06:03.367Z,36.26
2023-04-29T05:07:03.848Z,36.25
2023-04-29T05:08:03.486Z,36.22
2023-04-29T05:09:03.531Z,36.17
2023-04-29T05:10:03.607Z,36.23
2023-04-29T05:11:03.693Z,36.23
2023-04-29T05:12:03.719Z,36.25
2023-04-29T05:13:03.785Z,36.26
2023-04-29T05:14:03.826Z,36.19
2023-04-29T05:15:03.894Z,36.21
2023-04-29T05:16:06.212Z,36.18
2023-04-29T05:17:04.322Z,36.17
2023-04-29T05:18:04.270Z,36.15
2023-04-29T05:19:04.261Z,36.13
2023-04-29T05:20:04.301Z,36.15
2023-04-29T05:21:04.368Z,36.15
2023-04-29T05:22:04.871Z,36.17
2023-04-29T05:23:04.477Z,36.17
2023-04-29T05:24:04.552Z,36.18
2023-04-29T05:25:04.591Z,36.13
2023-04-29T05:26:04.663Z,36.14
2023-04-29T05:27:04.741Z,36.15
2023-04-29T05:28:04.798Z,36.18
2023-04-29T05:29:04.814Z,36.13
2023-04-29T05:30:04.867Z,36.12
2023-04-29T05:31:04.943Z,36.12
2023-04-29T05:32:04.982Z,36.09
2023-04-29T05:33:05.139Z,36.12
2023-04-29T05:34:05.075Z,36.13
2023-04-29T05:35:07.294Z,36.15
2023-04-29T05:36:05.257Z,36.12
2023-04-29T05:37:05.284Z,36.14
2023-04-29T05:38:05.359Z,36.12
2023-04-29T05:39:05.403Z,36.10
2023-04-29T05:40:05.484Z,36.09
2023-04-29T05:41:05.515Z,36.11
2023-04-29T05:42:05.870Z,36.11
2023-04-29T05:43:05.656Z,36.07
2023-04-29T05:44:05.714Z,36.12
2023-04-29T05:45:05.773Z,36.09
2023-04-29T05:46:05.848Z,36.05
2023-04-29T05:47:05.946Z,36.10
2023-04-29T05:48:06.047Z,36.12
2023-04-29T05:49:06.066Z,36.08
2023-04-29T05:50:06.104Z,36.10
2023-04-29T05:51:06.179Z,36.12
2023-04-29T05:52:06.227Z,36.09
2023-04-29T05:53:06.275Z,36.09
2023-04-29T05:54:06.337Z,36.10
2023-04-29T05:55:06.427Z,36.09
2023-04-29T05:56:06.452Z,36.06
2023-04-29T05:57:06.523Z,36.08
2023-04-29T05:58:06.585Z,36.05
2023-04-29T05:59:06.602Z,36.03
2023-04-29T06:00:06.684Z,36.04
2023-04-29T06:01:06.729Z,36.04
2023-04-29T06:02:06.868Z,36.05
2023-04-29T06:03:06.993Z,36.02
2023-04-29T06:04:07.061Z,36.04
2023-04-29T06:05:07.348Z,36.02
2023-04-29T06:06:07.034Z,35.98
2023-04-29T06:07:07.338Z,36.03
2023-04-29T06:08:07.129Z,36.01
2023-04-29T06:09:13.321Z,36.01
2023-04-29T06:10:08.194Z,36.00
2023-04-29T06:11:07.187Z,35.99
2023-04-29T06:12:07.367Z,36.00
2023-04-29T06:13:07.164Z,35.99
2023-04-29T06:14:07.152Z,35.97
2023-04-29T06:15:07.167Z,36.01
2023-04-29T06:16:07.185Z,35.97
2023-04-29T06:17:07.158Z,35.95
2023-04-29T06:18:07.142Z,35.94
2023-04-29T06:19:07.160Z,35.98
2023-04-29T06:20:07.250Z,35.99
2023-04-29T06:21:07.266Z,35.97
2023-04-29T06:22:07.365Z,35.93
2023-04-29T06:23:07.374Z,35.94
2023-04-29T06:24:07.453Z,35.95
2023-04-29T06:25:07.499Z,35.93
2023-04-29T06:26:07.541Z,35.98
2023-04-29T06:27:07.597Z,35.98
2023-04-29T06:28:07.667Z,35.95
2023-04-29T06:29:07.717Z,35.89
2023-04-29T06:30:07.778Z,35.95
2023-04-29T06:31:07.889Z,35.90
2023-04-29T06:32:07.924Z,35.91
2023-04-29T06:33:07.946Z,35.88
2023-04-29T06:34:07.992Z,35.85
2023-04-29T06:35:08.055Z,35.87
2023-04-29T06:36:08.086Z,35.82
2023-04-29T06:37:08.362Z,35.86
2023-04-29T06:38:08.216Z,35.81
2023-04-29T06:39:08.247Z,35.82
2023-04-29T06:40:08.320Z,35.79
2023-04-29T06:41:08.394Z,35.77
2023-04-29T06:42:08.862Z,35.80
2023-04-29T06:43:08.488Z,35.76
2023-04-29T06:44:08.511Z,35.72
2023-04-29T06:45:08.558Z,35.71
2023-04-29T06:46:08.629Z,35.68
2023-04-29T06:47:08.713Z,35.66
2023-04-29T06:48:08.906Z,35.66
2023-04-29T06:49:08.781Z,35.62
2023-04-29T06:50:09.419Z,35.66
2023-04-29T06:51:08.907Z,35.59
2023-04-29T06:52:08.956Z,35.57
2023-04-29T06:53:09.397Z,35.57
2023-04-29T06:54:09.053Z,35.65
2023-04-29T06:55:09.115Z,35.58
2023-04-29T06:56:09.177Z,35.59
2023-04-29T06:57:09.220Z,35.52
2023-04-29T06:58:09.358Z,35.54
2023-04-29T06:59:09.346Z,35.55
2023-04-29T07:00:09.399Z,35.49
2023-04-29T07:01:09.487Z,35.51
2023-04-29T07:02:09.509Z,35.45
2023-04-29T07:03:09.984Z,35.49
2023-04-29T07:04:09.634Z,35.46
2023-04-29T07:05:09.670Z,35.50
2023-04-29T07:06:09.716Z,35.51
2023-04-29T07:07:09.725Z,35.53
2023-04-29T07:08:09.797Z,35.49
2023-04-29T07:09:09.878Z,35.49
2023-04-29T07:10:09.914Z,35.50
2023-04-29T07:11:09.994Z,35.51
2023-04-29T07:12:10.031Z,35.51
2023-04-29T07:13:10.066Z,35.54
2023-04-29T07:14:10.145Z,35.56
2023-04-29T07:15:10.197Z,35.52
2023-04-29T07:16:10.245Z,35.54
2023-04-29T07:17:11.400Z,35.55
2023-04-29T07:18:10.495Z,35.56
2023-04-29T07:19:10.287Z,35.56
2023-04-29T07:20:10.298Z,35.57
2023-04-29T07:21:10.299Z,35.60
2023-04-29T07:22:10.258Z,35.60
2023-04-29T07:23:10.417Z,35.57
2023-04-29T07:24:10.237Z,35.58
2023-04-29T07:25:10.251Z,35.55
2023-04-29T07:26:10.886Z,35.61
2023-04-29T07:27:10.288Z,35.60
2023-04-29T07:28:10.220Z,35.55
2023-04-29T07:29:10.193Z,35.62
2023-04-29T07:30:10.196Z,35.60
2023-04-29T07:31:10.277Z,35.55
2023-04-29T07:32:10.198Z,35.53
2023-04-29T07:33:10.217Z,35.55
2023-04-29T07:34:10.177Z,35.58
2023-04-29T07:35:10.189Z,35.48
2023-04-29T07:36:10.171Z,35.55
2023-04-29T07:37:10.145Z,35.51
2023-04-29T07:38:10.371Z,35.52
2023-04-29T07:39:10.148Z,35.48
2023-04-29T07:40:10.121Z,35.49
2023-04-29T07:41:10.145Z,35.48
2023-04-29T07:42:10.102Z,35.54
2023-04-29T07:43:10.401Z,35.50
2023-04-29T07:44:10.118Z,35.44
2023-04-29T07:45:10.109Z,35.48
2023-04-29T07:46:10.186Z,35.45
2023-04-29T07:47:10.095Z,35.46
2023-04-29T07:48:10.127Z,35.46
2023-04-29T07:49:10.076Z,35.46
2023-04-29T07:50:10.081Z,35.44
2023-04-29T07:51:10.074Z,35.45
2023-04-29T07:52:10.110Z,35.38
2023-04-29T07:53:10.409Z,35.40
2023-04-29T07:54:10.073Z,35.35
2023-04-29T07:55:10.126Z,35.38
2023-04-29T07:56:10.148Z,35.38
2023-04-29T07:57:10.211Z,35.34
2023-04-29T07:58:10.448Z,35.33
2023-04-29T07:59:10.336Z,35.37
2023-04-29T08:00:10.380Z,35.32
2023-04-29T08:01:10.464Z,35.28
2023-04-29T08:02:10.496Z,35.30
2023-04-29T08:03:10.718Z,35.30
2023-04-29T08:04:11.008Z,35.33
2023-04-29T08:05:11.148Z,35.31
2023-04-29T08:06:10.745Z,35.31
2023-04-29T08:07:10.789Z,35.31
2023-04-29T08:08:10.773Z,35.27
2023-04-29T08:09:10.823Z,35.30
2023-04-29T08:10:10.877Z,35.27
2023-04-29T08:11:10.927Z,35.26
2023-04-29T08:12:10.975Z,35.30
2023-04-29T08:13:11.424Z,35.31
2023-04-29T08:14:11.043Z,35.30
2023-04-29T08:15:11.047Z,35.31
2023-04-29T08:16:11.124Z,35.24
2023-04-29T08:17:11.357Z,35.26
2023-04-29T08:18:11.199Z,35.28
2023-04-29T08:19:11.216Z,35.25
2023-04-29T08:20:11.272Z,35.25
2023-04-29T08:21:11.330Z,35.24
2023-04-29T08:22:11.364Z,35.25
2023-04-29T08:23:11.892Z,35.22
2023-04-29T08:24:11.452Z,35.24
2023-04-29T08:25:11.489Z,35.27
2023-04-29T08:26:11.509Z,35.24
2023-04-29T08:27:11.583Z,35.29
2023-04-29T08:28:11.659Z,35.28
2023-04-29T08:29:11.689Z,35.26
2023-04-29T08:30:11.730Z,35.21
2023-04-29T08:31:11.807Z,35.17
2023-04-29T08:32:11.833Z,35.26
2023-04-29T08:33:11.925Z,35.19
2023-04-29T08:34:11.914Z,35.20
2023-04-29T08:35:11.941Z,35.19
2023-04-29T08:36:11.946Z,35.15
2023-04-29T08:37:11.990Z,35.20
2023-04-29T08:38:12.061Z,35.21
2023-04-29T08:39:12.099Z,35.25
2023-04-29T08:40:12.124Z,35.24
2023-04-29T08:41:12.120Z,35.19
2023-04-29T08:42:12.222Z,35.17
2023-04-29T08:43:12.414Z,35.15
2023-04-29T08:44:12.228Z,35.11
2023-04-29T08:45:12.263Z,35.14
2023-04-29T08:46:12.388Z,35.17
2023-04-29T08:47:12.372Z,35.20
2023-04-29T08:48:12.544Z,35.16
2023-04-29T08:49:12.415Z,35.13
2023-04-29T08:50:12.484Z,35.13
2023-04-29T08:51:12.548Z,35.16
2023-04-29T08:52:12.567Z,35.21
2023-04-29T08:53:12.603Z,35.20
2023-04-29T08:54:12.654Z,35.20
2023-04-29T08:55:12.703Z,35.20
2023-04-29T08:56:12.707Z,35.20
2023-04-29T08:57:12.758Z,35.20
2023-04-29T08:58:12.793Z,35.17
2023-04-29T08:59:12.836Z,35.12
2023-04-29T09:00:12.911Z,35.09
2023-04-29T09:01:13.062Z,35.08
2023-04-29T09:02:12.979Z,35.11
2023-04-29T09:03:13.505Z,35.14
2023-04-29T09:04:13.085Z,35.12
2023-04-29T09:05:13.129Z,35.15
2023-04-29T09:06:13.182Z,35.08
2023-04-29T09:07:13.226Z,35.14
2023-04-29T09:08:13.262Z,35.15
2023-04-29T09:09:13.303Z,35.07
2023-04-29T09:10:13.336Z,35.08
2023-04-29T09:11:13.423Z,35.06
2023-04-29T09:12:13.462Z,35.06
2023-04-29T09:13:13.541Z,35.11
2023-04-29T09:14:13.582Z,35.06
2023-04-29T09:15:13.578Z,35.10
2023-04-29T09:16:13.663Z,35.11
2023-04-29T09:17:13.727Z,35.10
2023-04-29T09:18:13.749Z,35.11
2023-04-29T09:19:13.823Z,35.14
2023-04-29T09:20:13.848Z,35.11
2023-04-29T09:21:13.924Z,35.04
2023-04-29T09:22:13.945Z,35.06
2023-04-29T09:23:13.988Z,35.03
2023-04-29T09:24:14.022Z,35.03
2023-04-29T09:25:14.136Z,35.07
2023-04-29T09:26:14.154Z,35.07
2023-04-29T09:27:14.197Z,35.06
2023-04-29T09:28:14.248Z,35.05
2023-04-29T09:29:14.438Z,35.02
2023-04-29T09:30:14.330Z,35.03
2023-04-29T09:31:14.450Z,35.03
2023-04-29T09:32:14.442Z,35.03
2023-04-29T09:33:14.512Z,35.02
2023-04-29T09:34:14.581Z,35.02
2023-04-29T09:35:14.587Z,35.02
2023-04-29T09:36:14.617Z,35.03
2023-04-29T09:37:14.675Z,35.02
2023-04-29T09:38:14.716Z,35.02
2023-04-29T09:39:14.786Z,35.01
2023-04-29T09:40:14.795Z,35.01
2023-04-29T09:41:14.855Z,34.97
2023-04-29T09:42:14.904Z,35.00
2023-04-29T09:43:14.951Z,34.96
2023-04-29T09:44:15.017Z,34.98
2023-04-29T09:45:15.052Z,35.01
2023-04-29T09:46:15.227Z,34.98
2023-04-29T09:47:15.179Z,34.95
2023-04-29T09:48:15.428Z,34.90
2023-04-29T09:49:15.252Z,34.94
2023-04-29T09:50:15.306Z,34.92
2023-04-29T09:51:16.204Z,34.89
2023-04-29T09:52:15.396Z,34.89
2023-04-29T09:53:15.414Z,34.88
2023-04-29T09:54:15.478Z,34.92
2023-04-29T09:55:15.512Z,34.88
2023-04-29T09:56:15.583Z,34.87
2023-04-29T09:57:15.623Z,34.88
2023-04-29T09:58:15.924Z,34.84
2023-04-29T09:59:15.711Z,34.88
2023-04-29T10:00:15.747Z,34.83
2023-04-29T10:01:15.894Z,34.83
2023-04-29T10:02:15.931Z,34.84
2023-04-29T10:03:15.964Z,34.88
2023-04-29T10:04:15.999Z,34.85
2023-04-29T10:05:16.046Z,34.89
2023-04-29T10:06:16.051Z,34.84
2023-04-29T10:07:16.116Z,34.89
2023-04-29T10:08:16.182Z,34.83
2023-04-29T10:09:16.155Z,34.88
2023-04-29T10:10:16.304Z,34.90
2023-04-29T10:11:16.279Z,34.93
2023-04-29T10:12:16.330Z,34.86
2023-04-29T10:13:16.377Z,34.90
2023-04-29T10:14:16.430Z,34.88
2023-04-29T10:15:16.449Z,34.84
2023-04-29T10:16:16.560Z,34.83
2023-04-29T10:17:16.532Z,34.80
2023-04-29T10:18:16.590Z,34.83
2023-04-29T10:19:16.686Z,34.86
2023-04-29T10:20:16.825Z,34.80
2023-04-29T10:21:16.724Z,34.81
2023-04-29T10:22:16.719Z,34.82
2023-04-29T10:23:16.764Z,34.83
2023-04-29T10:24:16.812Z,34.81
2023-04-29T10:25:16.803Z,34.83
2023-04-29T10:26:16.834Z,34.83
2023-04-29T10:27:16.882Z,34.79
2023-04-29T10:28:17.007Z,34.84
2023-04-29T10:29:16.939Z,34.80
2023-04-29T10:30:16.992Z,34.79
2023-04-29T10:31:17.097Z,34.77
2023-04-29T10:32:17.098Z,34.82
2023-04-29T10:33:17.494Z,34.77
2023-04-29T10:34:17.181Z,34.77
2023-04-29T10:35:17.210Z,34.70
2023-04-29T10:36:17.268Z,34.71
2023-04-29T10:37:17.301Z,34.70
2023-04-29T10:38:19.019Z,34.74
2023-04-29T10:39:17.425Z,34.74
2023-04-29T10:40:17.417Z,34.74
2023-04-29T10:41:17.479Z,34.76
2023-04-29T10:42:17.511Z,34.71
2023-04-29T10:43:17.571Z,34.75
2023-04-29T10:44:17.590Z,34.73
2023-04-29T10:45:17.638Z,34.75
2023-04-29T10:46:17.811Z,34.76
2023-04-29T10:47:17.747Z,34.73
2023-04-29T10:48:17.964Z,34.73
2023-04-29T10:49:17.825Z,34.71
2023-04-29T10:50:17.845Z,34.68
2023-04-29T10:51:17.921Z,34.70
2023-04-29T10:52:17.959Z,34.68
2023-04-29T10:53:17.970Z,34.70
2023-04-29T10:54:18.034Z,34.67
2023-04-29T10:55:18.071Z,34.68
2023-04-29T10:56:18.104Z,34.71
2023-04-29T10:57:18.162Z,34.67
2023-04-29T10:58:18.210Z,34.69
2023-04-29T10:59:18.231Z,34.65
2023-04-29T11:00:18.281Z,34.69
2023-04-29T11:01:18.349Z,34.65
2023-04-29T11:02:18.357Z,34.66
2023-04-29T11:03:18.507Z,34.69
2023-04-29T11:04:18.511Z,34.66
2023-04-29T11:05:18.538Z,34.68
2023-04-29T11:06:18.558Z,34.66
2023-04-29T11:07:18.600Z,34.65
2023-04-29T11:08:18.618Z,34.64
2023-04-29T11:09:18.673Z,34.56
2023-04-29T11:10:18.699Z,34.62
2023-04-29T11:11:18.754Z,34.57
2023-04-29T11:12:18.794Z,34.61
2023-04-29T11:13:18.826Z,34.60
2023-04-29T11:14:18.870Z,34.58
2023-04-29T11:15:18.918Z,34.59
2023-04-29T11:16:18.989Z,34.63
2023-04-29T11:17:19.002Z,34.59
2023-04-29T11:18:19.101Z,34.58
2023-04-29T11:19:19.053Z,34.62
2023-04-29T11:20:19.092Z,34.58
2023-04-29T11:21:19.134Z,34.53
2023-04-29T11:22:19.160Z,34.54
2023-04-29T11:23:19.206Z,34.54
2023-04-29T11:24:19.232Z,34.54
2023-04-29T11:25:19.297Z,34.56
2023-04-29T11:26:19.356Z,34.54
2023-04-29T11:27:19.374Z,34.50
2023-04-29T11:28:19.486Z,34.52
2023-04-29T11:29:19.451Z,34.51
2023-04-29T11:30:19.495Z,34.55
2023-04-29T11:31:19.626Z,34.55
2023-04-29T11:32:19.590Z,34.54
2023-04-29T11:33:19.660Z,34.52
2023-04-29T11:34:19.631Z,34.56
2023-04-29T11:35:19.755Z,34.55
2023-04-29T11:36:19.727Z,34.51
2023-04-29T11:37:19.756Z,34.56
2023-04-29T11:38:19.779Z,34.58
2023-04-29T11:39:19.835Z,34.51
2023-04-29T11:40:19.895Z,34.47
2023-04-29T11:41:19.913Z,34.45
2023-04-29T11:42:19.948Z,34.47
2023-04-29T11:43:20.517Z,34.42
2023-04-29T11:44:20.035Z,34.42
2023-04-29T11:45:20.118Z,34.42
2023-04-29T11:46:20.157Z,34.42
2023-04-29T11:47:20.184Z,34.42
2023-04-29T11:48:20.201Z,34.41
2023-04-29T11:49:20.221Z,34.42
2023-04-29T11:50:20.771Z,34.38
2023-04-29T11:51:20.362Z,34.43
2023-04-29T11:52:20.312Z,34.41
2023-04-29T11:53:20.352Z,34.41
2023-04-29T11:54:20.384Z,34.41
2023-04-29T11:55:20.421Z,34.41
2023-04-29T11:56:20.453Z,34.39
2023-04-29T11:57:20.492Z,34.41
2023-04-29T11:58:20.507Z,34.41
2023-04-29T11:59:20.550Z,34.37
2023-04-29T12:00:20.667Z,34.38
2023-04-29T12:01:20.635Z,34.35
2023-04-29T12:02:20.758Z,34.36
2023-04-29T12:03:20.914Z,34.36
2023-04-29T12:04:20.999Z,34.37
2023-04-29T12:05:20.978Z,34.37
2023-04-29T12:06:20.870Z,34.33
2023-04-29T12:07:20.843Z,34.34
2023-04-29T12:08:20.896Z,34.33
2023-04-29T12:09:20.924Z,34.33
2023-04-29T12:10:20.991Z,34.36
2023-04-29T12:11:21.007Z,34.30
2023-04-29T12:12:21.013Z,34.34
2023-04-29T12:13:21.081Z,34.30
2023-04-29T12:14:21.136Z,34.27
2023-04-29T12:15:21.147Z,34.30
2023-04-29T12:16:21.240Z,34.27
2023-04-29T12:17:21.259Z,34.36
2023-04-29T12:18:21.302Z,34.26
2023-04-29T12:19:21.296Z,34.26
2023-04-29T12:20:21.367Z,34.23
2023-04-29T12:21:21.423Z,34.22
2023-04-29T12:22:21.431Z,34.25
2023-04-29T12:23:21.509Z,34.20
2023-04-29T12:24:21.535Z,34.21
2023-04-29T12:25:21.549Z,34.21
2023-04-29T12:26:21.585Z,34.24
2023-04-29T12:27:21.609Z,34.19
2023-04-29T12:28:21.683Z,34.20
2023-04-29T12:29:21.672Z,34.15
2023-04-29T12:30:21.751Z,34.20
2023-04-29T12:31:21.821Z,34.16
2023-04-29T12:32:21.850Z,34.14
2023-04-29T12:33:21.989Z,34.18
2023-04-29T12:34:21.817Z,34.12
2023-04-29T12:35:21.875Z,34.10
2023-04-29T12:36:21.897Z,34.14
2023-04-29T12:37:21.946Z,34.07
2023-04-29T12:38:21.974Z,34.08
2023-04-29T12:39:21.975Z,34.12
2023-04-29T12:40:22.030Z,34.11
2023-04-29T12:41:22.072Z,34.06
2023-04-29T12:42:22.146Z,34.06
2023-04-29T12:43:22.154Z,34.06
2023-04-29T12:44:22.239Z,34.07
2023-04-29T12:45:22.210Z,34.11
2023-04-29T12:46:22.280Z,34.10
2023-04-29T12:47:22.298Z,34.09
2023-04-29T12:48:29.142Z,34.09
2023-04-29T12:49:23.334Z,34.06
2023-04-29T12:50:22.309Z,34.07
2023-04-29T12:51:22.302Z,34.02
2023-04-29T12:52:22.283Z,33.98
2023-04-29T12:53:22.275Z,34.01
2023-04-29T12:54:22.261Z,33.98